createdAt,value
2024-01-20T00:02:01.930Z,3.55
2024-01-20T00:04:31.050Z,4.72
2024-01-20T00:07:00.325Z,9.23
2024-01-20T00:09:34.762Z,2.97
2024-01-20T00:12:11.050Z,3.40
2024-01-20T00:14:40.177Z,3.72
2024-01-20T00:17:13.638Z,6.55
2024-01-20T00:19:54.161Z,7.10
2024-01-20T00:22:24.161Z,4.65
2024-01-20T00:24:53.868Z,5.50
2024-01-20T00:27:23.170Z,3.92
2024-01-20T00:29:52.305Z,1.60
2024-01-20T00:32:21.322Z,3.70
2024-01-20T00:34:59.837Z,9.73
2024-01-20T00:37:36.794Z,7.68
2024-01-20T00:40:06.598Z,3.67
2024-01-20T00:42:37.902Z,6.22
2024-01-20T00:45:07.647Z,13.20
2024-01-20T00:47:39.627Z,8.93
2024-01-20T00:50:10.084Z,5.90
2024-01-20T00:52:39.244Z,10.48
2024-01-20T00:55:08.777Z,9.48
2024-01-20T00:57:37.613Z,5.57
2024-01-20T01:00:12.994Z,4.78
2024-01-20T01:02:42.944Z,2.58
2024-01-20T01:05:12.103Z,3.72
2024-01-20T01:07:40.840Z,5.82
2024-01-20T01:10:09.834Z,2.90
2024-01-20T01:12:38.858Z,3.22
2024-01-20T01:15:08.025Z,4.47
2024-01-20T01:17:36.752Z,4.40
2024-01-20T01:20:06.570Z,1.95
2024-01-20T01:22:35.615Z,1.10
2024-01-20T01:25:04.718Z,3.50
2024-01-20T01:27:33.348Z,4.32
2024-01-20T01:30:05.002Z,5.13
2024-01-20T01:32:34.069Z,4.47
2024-01-20T01:35:02.978Z,2.88
2024-01-20T01:37:31.407Z,4.38
2024-01-20T01:39:59.941Z,3.80
2024-01-20T01:42:28.552Z,3.58
2024-01-20T01:44:57.457Z,3.38
2024-01-20T01:47:29.295Z,5.30
2024-01-20T01:49:58.597Z,4.43
2024-01-20T01:52:28.896Z,6.95
2024-01-20T01:54:59.139Z,1.00
2024-01-20T01:57:30.358Z,1.48
2024-01-20T02:00:00.341Z,1.42
2024-01-20T02:02:29.422Z,1.92
2024-01-20T02:04:58.114Z,2.90
2024-01-20T02:07:27.416Z,6.13
2024-01-20T02:09:55.970Z,3.17
2024-01-20T02:12:25.780Z,3.35
2024-01-20T02:14:57.239Z,8.02
2024-01-20T02:17:25.783Z,3.00
2024-01-20T02:19:54.513Z,2.45
2024-01-20T02:22:28.300Z,3.03
2024-01-20T02:24:56.728Z,3.50
2024-01-20T02:27:25.401Z,4.05
2024-01-20T02:29:54.038Z,5.68
2024-01-20T02:32:22.789Z,5.22
2024-01-20T02:34:52.013Z,4.28
2024-01-20T02:37:21.158Z,6.35
2024-01-20T02:39:50.945Z,8.07
2024-01-20T02:42:19.480Z,3.95
2024-01-20T02:44:48.362Z,9.68
2024-01-20T02:47:16.846Z,7.30
2024-01-20T02:49:45.880Z,5.28
2024-01-20T02:52:14.520Z,3.15
2024-01-20T02:54:43.316Z,8.40
2024-01-20T02:57:14.654Z,4.97
2024-01-20T02:59:43.791Z,4.13
2024-01-20T03:02:12.598Z,11.65
2024-01-20T03:04:41.174Z,10.18
2024-01-20T03:07:09.977Z,10.50
2024-01-20T03:09:38.889Z,7.75
2024-01-20T03:12:08.219Z,8.05
2024-01-20T03:14:37.323Z,3.80
2024-01-20T03:17:09.197Z,8.13
2024-01-20T03:19:38.134Z,7.90
2024-01-20T03:22:07.099Z,1.90
2024-01-20T03:24:35.927Z,10.13
2024-01-20T03:27:04.637Z,8.70
2024-01-20T03:29:33.755Z,7.95
2024-01-20T03:32:02.582Z,8.35
2024-01-20T03:34:31.301Z,7.50
2024-01-20T03:37:00.258Z,2.80
2024-01-20T03:39:29.305Z,5.07
2024-01-20T03:41:57.867Z,8.45
2024-01-20T03:44:27.177Z,6.40
2024-01-20T03:46:55.838Z,8.23
2024-01-20T03:49:24.697Z,10.85
2024-01-20T03:51:53.816Z,5.95
2024-01-20T03:54:22.595Z,6.05
2024-01-20T03:56:51.376Z,6.55
2024-01-20T03:59:20.328Z,3.88
2024-01-20T04:01:49.093Z,7.88
2024-01-20T04:04:18.114Z,4.43
2024-01-20T04:06:46.680Z,8.90
2024-01-20T04:09:15.808Z,5.63
2024-01-20T04:11:44.494Z,5.57
2024-01-20T04:14:14.467Z,11.05
2024-01-20T04:16:43.180Z,6.03
2024-01-20T04:19:12.128Z,7.10
2024-01-20T04:21:43.303Z,8.75
2024-01-20T04:24:11.922Z,5.57
2024-01-20T04:26:40.917Z,9.65
2024-01-20T04:29:09.755Z,5.00
2024-01-20T04:31:38.416Z,7.28
2024-01-20T04:34:07.173Z,5.88
2024-01-20T04:36:35.907Z,5.60
2024-01-20T04:39:04.772Z,3.53
2024-01-20T04:41:33.342Z,8.20
2024-01-20T04:44:02.222Z,7.53
2024-01-20T04:46:33.654Z,12.20
2024-01-20T04:49:02.420Z,6.30
2024-01-20T04:51:31.353Z,7.32
2024-01-20T04:54:00.050Z,7.72
2024-01-20T04:56:28.895Z,8.00
2024-01-20T04:58:58.392Z,7.47
2024-01-20T05:01:27.169Z,7.20
2024-01-20T05:03:56.245Z,8.85
2024-01-20T05:06:25.050Z,10.10
2024-01-20T05:08:53.932Z,4.05
2024-01-20T05:11:22.654Z,9.25
2024-01-20T05:13:51.434Z,10.30
2024-01-20T05:16:20.896Z,7.57
2024-01-20T05:18:50.795Z,7.22
2024-01-20T05:21:19.814Z,4.13
2024-01-20T05:23:48.411Z,7.97
2024-01-20T05:26:17.341Z,1.83
2024-01-20T05:28:46.172Z,5.35
2024-01-20T05:31:18.071Z,5.70
2024-01-20T05:33:47.036Z,2.72
2024-01-20T05:36:15.884Z,5.63
2024-01-20T05:38:44.692Z,6.38
2024-01-20T05:41:14.211Z,4.97
2024-01-20T05:43:45.706Z,8.20
2024-01-20T05:46:14.509Z,7.97
2024-01-20T05:48:43.358Z,3.95
2024-01-20T05:51:12.282Z,5.78
2024-01-20T05:53:42.155Z,11.40
2024-01-20T05:56:11.000Z,9.07
2024-01-20T05:58:40.075Z,12.85
2024-01-20T06:01:11.991Z,9.65
2024-01-20T06:03:40.731Z,8.23
2024-01-20T06:06:10.927Z,10.45
2024-01-20T06:08:41.382Z,11.82
2024-01-20T06:11:11.726Z,10.35
2024-01-20T06:13:40.278Z,6.18
2024-01-20T06:16:09.327Z,5.88
2024-01-20T06:18:38.125Z,9.75
2024-01-20T06:21:07.237Z,5.38
2024-01-20T06:23:36.582Z,7.15
2024-01-20T06:26:06.001Z,3.90
2024-01-20T06:28:34.637Z,10.23
2024-01-20T06:31:03.894Z,5.93
2024-01-20T06:33:32.775Z,9.55
2024-01-20T06:36:01.865Z,9.60
2024-01-20T06:38:30.581Z,6.30
2024-01-20T06:41:00.275Z,4.28
2024-01-20T06:43:29.233Z,11.00
2024-01-20T06:45:58.294Z,16.00
2024-01-20T06:48:28.620Z,8.80
2024-01-20T06:51:00.909Z,8.18
2024-01-20T06:53:29.652Z,5.80
2024-01-20T06:55:58.755Z,9.32
2024-01-20T06:58:27.594Z,5.43
2024-01-20T07:00:56.541Z,4.97
2024-01-20T07:03:25.973Z,5.80
2024-01-20T07:05:54.879Z,1.80
2024-01-20T07:08:23.731Z,5.93
2024-01-20T07:10:52.216Z,4.97
2024-01-20T07:13:21.054Z,3.83
2024-01-20T07:15:49.743Z,2.22
2024-01-20T07:18:18.933Z,4.82
2024-01-20T07:20:50.935Z,4.60
2024-01-20T07:23:19.876Z,1.75
2024-01-20T07:25:48.872Z,4.65
2024-01-20T07:28:17.833Z,2.20
2024-01-20T07:30:47.137Z,5.03
2024-01-20T07:33:15.800Z,6.82
2024-01-20T07:35:44.695Z,8.10
2024-01-20T07:38:13.886Z,7.55
2024-01-20T07:40:43.337Z,7.88
2024-01-20T07:43:12.294Z,4.88
2024-01-20T07:45:42.856Z,4.35
2024-01-20T07:48:11.962Z,6.68
2024-01-20T07:50:41.107Z,5.43
2024-01-20T07:53:09.984Z,4.00
2024-01-20T07:55:38.946Z,4.55
2024-01-20T07:58:07.956Z,3.53
2024-01-20T08:00:36.923Z,4.65
2024-01-20T08:03:06.436Z,3.78
2024-01-20T08:05:35.910Z,6.60
2024-01-20T08:08:05.346Z,3.53
2024-01-20T08:10:34.377Z,3.75
2024-01-20T08:13:03.001Z,4.10
2024-01-20T08:15:32.112Z,2.25
2024-01-20T08:18:02.190Z,5.00
2024-01-20T08:20:31.237Z,1.63
2024-01-20T08:23:00.197Z,4.50
2024-01-20T08:25:28.894Z,1.35
2024-01-20T08:27:57.753Z,3.75
2024-01-20T08:30:27.460Z,1.65
2024-01-20T08:33:00.434Z,1.48
2024-01-20T08:35:31.553Z,2.60
2024-01-20T08:38:00.278Z,2.65
2024-01-20T08:40:29.329Z,1.40
2024-01-20T08:42:59.515Z,0.70
2024-01-20T08:45:28.729Z,2.33
2024-01-20T08:48:02.134Z,0.93
2024-01-20T08:50:31.112Z,1.85
2024-01-20T08:53:00.362Z,2.17
2024-01-20T08:55:29.308Z,3.25
2024-01-20T08:57:59.113Z,2.85
2024-01-20T09:00:27.808Z,3.35
2024-01-20T09:02:56.647Z,4.72
2024-01-20T09:05:26.076Z,2.00
2024-01-20T09:08:07.161Z,1.63
2024-01-20T09:10:37.338Z,4.07
2024-01-20T09:13:06.912Z,3.17
2024-01-20T09:15:36.171Z,4.05
2024-01-20T09:18:05.886Z,2.42
2024-01-20T09:20:34.852Z,1.52
2024-01-20T09:23:03.917Z,1.60
2024-01-20T09:25:32.810Z,2.78
2024-01-20T09:28:02.399Z,5.97
2024-01-20T09:30:31.126Z,4.47
2024-01-20T09:33:00.206Z,1.13
2024-01-20T09:35:29.453Z,2.20
2024-01-20T09:37:58.412Z,2.47
2024-01-20T09:40:28.292Z,2.95
2024-01-20T09:42:57.222Z,3.17
2024-01-20T09:45:26.940Z,2.40
2024-01-20T09:47:57.403Z,3.13
2024-01-20T09:50:26.330Z,2.00
2024-01-20T09:53:10.246Z,4.88
2024-01-20T09:55:39.066Z,3.60
2024-01-20T09:58:10.666Z,3.17
2024-01-20T10:00:41.323Z,4.05
2024-01-20T10:03:11.543Z,2.03
2024-01-20T10:05:40.665Z,2.35
2024-01-20T10:08:09.504Z,2.15
2024-01-20T10:10:38.919Z,1.20
2024-01-20T10:13:07.778Z,3.35
2024-01-20T10:15:38.279Z,2.28
2024-01-20T10:18:13.030Z,3.72
2024-01-20T10:20:43.070Z,2.75
2024-01-20T10:23:12.815Z,1.50
2024-01-20T10:25:41.774Z,4.05
2024-01-20T10:28:10.761Z,1.65
2024-01-20T10:30:40.679Z,1.00
2024-01-20T10:33:11.480Z,3.00
2024-01-20T10:35:40.903Z,1.25
2024-01-20T10:38:15.303Z,1.20
2024-01-20T10:40:48.470Z,2.47
2024-01-20T10:43:18.139Z,3.43
2024-01-20T10:46:00.642Z,2.85
2024-01-20T10:48:35.955Z,1.40
2024-01-20T10:51:10.871Z,2.10
2024-01-20T10:53:43.218Z,0.95
2024-01-20T10:56:13.701Z,1.42
2024-01-20T10:58:50.140Z,4.75
2024-01-20T11:01:20.323Z,4.13
2024-01-20T11:03:49.615Z,3.03
2024-01-20T11:06:22.855Z,1.92
2024-01-20T11:08:53.685Z,3.08
2024-01-20T11:11:28.984Z,1.23
2024-01-20T11:14:01.619Z,2.63
2024-01-20T11:16:39.121Z,2.67
2024-01-20T11:19:13.823Z,2.88
2024-01-20T11:21:43.072Z,3.03
2024-01-20T11:24:12.873Z,4.68
2024-01-20T11:26:43.221Z,4.38
2024-01-20T11:29:12.637Z,2.53
2024-01-20T11:31:50.864Z,3.45
2024-01-20T11:34:52.883Z,2.30
2024-01-20T11:56:14.176Z,1.00
2024-01-20T11:58:44.571Z,3.00
2024-01-20T12:01:16.006Z,3.13
2024-01-20T12:03:44.865Z,1.98
2024-01-20T12:06:17.028Z,2.80
2024-01-20T12:08:47.357Z,3.03
2024-01-20T12:11:20.869Z,2.30
2024-01-20T12:13:52.515Z,3.72
2024-01-20T12:16:21.707Z,3.75
2024-01-20T12:18:52.118Z,1.80
2024-01-20T12:21:23.584Z,1.00
2024-01-20T12:23:54.643Z,3.33
2024-01-20T12:26:24.453Z,3.60
2024-01-20T12:28:55.021Z,1.75
2024-01-20T12:31:27.969Z,2.75
2024-01-20T12:33:56.656Z,2.37
2024-01-20T12:36:26.747Z,2.17
2024-01-20T12:38:56.003Z,3.17
2024-01-20T12:41:25.001Z,5.60
2024-01-20T12:43:56.170Z,5.13
2024-01-20T12:46:25.093Z,2.78
2024-01-20T12:48:53.810Z,3.30
2024-01-20T12:51:22.817Z,2.03
2024-01-20T12:53:52.265Z,1.35
2024-01-20T12:56:21.360Z,3.58
2024-01-20T12:58:50.100Z,2.92
2024-01-20T13:01:20.382Z,2.85
2024-01-20T13:03:49.752Z,2.35
2024-01-20T13:06:19.006Z,5.35
2024-01-20T13:08:51.685Z,3.80
2024-01-20T13:11:21.078Z,3.97
2024-01-20T13:13:50.542Z,4.40
2024-01-20T13:16:19.217Z,5.45
2024-01-20T13:18:48.270Z,5.40
2024-01-20T13:21:17.041Z,3.92
2024-01-20T13:23:49.084Z,2.20
2024-01-20T13:26:20.093Z,1.20
2024-01-20T13:28:53.950Z,2.75
2024-01-20T13:31:24.906Z,3.50
2024-01-20T13:33:55.489Z,1.50
2024-01-20T13:36:24.484Z,2.30
2024-01-20T13:38:56.421Z,1.73
2024-01-20T13:41:26.256Z,1.90
2024-01-20T13:43:55.445Z,1.10
2024-01-20T13:46:24.433Z,3.65
2024-01-20T13:48:53.493Z,4.20
2024-01-20T13:51:24.238Z,3.55
2024-01-20T13:53:54.607Z,2.40
2024-01-20T13:56:26.222Z,1.10
2024-01-20T13:58:55.902Z,1.30
2024-01-20T14:01:25.969Z,1.23
2024-01-20T14:03:55.637Z,2.05
2024-01-20T14:06:26.532Z,1.23
2024-01-20T14:08:55.561Z,2.72
2024-01-20T14:11:25.623Z,1.52
2024-01-20T14:13:54.643Z,1.98
2024-01-20T14:16:23.502Z,5.18
2024-01-20T14:18:52.386Z,1.55
2024-01-20T14:21:21.405Z,2.08
2024-01-20T14:23:50.394Z,3.20
2024-01-20T14:26:19.628Z,3.28
2024-01-20T14:28:50.567Z,1.63
2024-01-20T14:31:19.450Z,2.20
2024-01-20T14:33:48.657Z,3.63
2024-01-20T14:36:17.471Z,3.35
2024-01-20T14:38:46.329Z,2.08
2024-01-20T14:41:15.089Z,1.15
2024-01-20T14:43:44.387Z,1.15
2024-01-20T14:46:12.989Z,3.35
2024-01-20T14:48:41.889Z,1.45
2024-01-20T14:51:11.093Z,2.03
2024-01-20T14:53:40.330Z,2.33
2024-01-20T14:56:09.296Z,0.98
2024-01-20T14:58:38.032Z,2.83
2024-01-20T15:01:06.938Z,1.77
2024-01-20T15:03:35.970Z,1.00
2024-01-20T15:06:07.715Z,2.70
2024-01-20T15:08:37.529Z,1.35
2024-01-20T15:11:06.474Z,3.05
2024-01-20T15:13:35.110Z,3.10
2024-01-20T15:16:05.371Z,4.40
2024-01-20T15:18:34.149Z,2.38
2024-01-20T15:21:03.205Z,1.58
2024-01-20T15:23:32.159Z,2.65
2024-01-20T15:26:01.552Z,2.45
2024-01-20T15:28:30.599Z,3.50
2024-01-20T15:30:59.464Z,1.83
2024-01-20T15:33:28.680Z,1.00
2024-01-20T15:35:57.509Z,1.13
2024-01-20T15:38:26.449Z,1.90
2024-01-20T15:40:57.590Z,1.50
2024-01-20T15:43:26.532Z,3.15
2024-01-20T15:45:55.382Z,4.03
2024-01-20T15:48:24.385Z,0.98
2024-01-20T15:50:53.269Z,3.70
2024-01-20T15:53:22.188Z,1.50
2024-01-20T15:55:51.339Z,2.65
2024-01-20T15:58:20.349Z,1.50
2024-01-20T16:00:49.340Z,2.95
2024-01-20T16:03:18.482Z,2.67
2024-01-20T16:05:50.086Z,7.00
2024-01-20T16:08:19.106Z,3.05
2024-01-20T16:10:47.681Z,2.33
2024-01-20T16:13:17.084Z,2.70
2024-01-20T16:15:46.343Z,1.10
2024-01-20T16:18:17.044Z,1.85
2024-01-20T16:20:46.198Z,2.78
2024-01-20T16:23:18.583Z,2.22
2024-01-20T16:25:51.204Z,1.35
2024-01-20T16:28:19.914Z,1.00
2024-01-20T16:30:48.777Z,2.05
2024-01-20T16:33:17.828Z,2.35
2024-01-20T16:35:46.963Z,2.33
2024-01-20T16:38:17.130Z,3.42
2024-01-20T16:40:47.483Z,1.10
2024-01-20T16:43:16.202Z,4.45
2024-01-20T16:45:45.228Z,3.80
2024-01-20T16:48:14.910Z,2.33
2024-01-20T16:50:43.942Z,1.10
2024-01-20T16:53:13.795Z,5.20
2024-01-20T16:55:42.667Z,2.50
2024-01-20T16:58:16.771Z,1.27
2024-01-20T17:00:45.778Z,1.20
2024-01-20T17:03:19.668Z,1.30
2024-01-20T17:05:51.190Z,2.90
2024-01-20T17:08:20.490Z,3.03
2024-01-20T17:10:50.855Z,1.88
2024-01-20T17:13:19.636Z,1.67
2024-01-20T17:15:49.749Z,1.35
2024-01-20T17:18:18.747Z,1.80
2024-01-20T17:20:47.736Z,0.90
2024-01-20T17:23:16.889Z,1.25
2024-01-20T17:25:48.602Z,2.83
2024-01-20T17:28:19.213Z,1.90
2024-01-20T17:30:53.824Z,2.53
2024-01-20T17:33:23.064Z,1.67
2024-01-20T17:35:54.830Z,1.30
2024-01-20T17:38:23.749Z,2.30
2024-01-20T17:40:52.397Z,3.53
2024-01-20T17:43:21.686Z,2.13
2024-01-20T17:45:52.022Z,2.00
2024-01-20T17:48:23.799Z,5.00
2024-01-20T17:50:53.950Z,2.00
2024-01-20T17:53:27.040Z,2.85
2024-01-20T17:55:55.687Z,3.63
2024-01-20T17:58:24.467Z,4.13
2024-01-20T18:00:57.133Z,1.92
2024-01-20T18:03:27.247Z,2.25
2024-01-20T18:05:56.173Z,2.08
2024-01-20T18:08:26.074Z,1.02
2024-01-20T18:10:57.108Z,1.83
2024-01-20T18:13:26.156Z,2.50
2024-01-20T18:15:54.947Z,2.17
2024-01-20T18:18:23.848Z,1.48
2024-01-20T18:20:53.127Z,1.30
2024-01-20T18:23:23.449Z,5.50
2024-01-20T18:25:52.686Z,2.95
2024-01-20T18:28:21.180Z,2.38
2024-01-20T18:30:50.103Z,2.00
2024-01-20T18:33:19.791Z,1.83
2024-01-20T18:35:48.802Z,1.27
2024-01-20T18:38:18.911Z,1.70
2024-01-20T18:40:47.743Z,3.15
2024-01-20T18:43:16.876Z,3.90
2024-01-20T18:45:45.825Z,3.97
2024-01-20T18:48:14.796Z,1.45
2024-01-20T18:50:44.165Z,1.52
2024-01-20T18:53:14.812Z,2.38
2024-01-20T18:55:43.825Z,2.22
2024-01-20T18:58:13.876Z,1.15
2024-01-20T19:00:42.674Z,1.10
2024-01-20T19:03:12.099Z,1.20
2024-01-20T19:05:41.496Z,2.00
2024-01-20T19:08:10.476Z,1.73
2024-01-20T19:10:41.435Z,1.55
2024-01-20T19:13:13.055Z,1.23
2024-01-20T19:15:42.397Z,2.03
2024-01-20T19:18:11.694Z,1.65
2024-01-20T19:20:42.210Z,1.80
2024-01-20T19:23:14.658Z,1.92
2024-01-20T19:25:43.646Z,2.10
2024-01-20T19:28:12.460Z,1.25
2024-01-20T19:30:41.230Z,2.13
2024-01-20T19:33:10.480Z,1.60
2024-01-20T19:35:39.315Z,3.28
2024-01-20T19:38:08.246Z,1.00
2024-01-20T19:40:37.600Z,2.88
2024-01-20T19:43:06.537Z,3.30
2024-01-20T19:45:35.718Z,2.65
2024-01-20T19:48:05.154Z,1.98
2024-01-20T19:50:33.887Z,1.00
2024-01-20T19:53:02.817Z,1.45
2024-01-20T19:55:31.178Z,2.30
2024-01-20T19:57:59.698Z,1.20
2024-01-20T20:00:28.928Z,1.42
2024-01-20T20:03:00.849Z,1.83
2024-01-20T20:05:30.060Z,2.05
2024-01-20T20:08:00.379Z,1.30
2024-01-20T20:10:31.123Z,1.00
2024-01-20T20:12:59.977Z,2.03
2024-01-20T20:15:30.002Z,1.48
2024-01-20T20:17:59.081Z,1.15
2024-01-20T20:20:27.826Z,3.00
2024-01-20T20:22:57.082Z,1.50
2024-01-20T20:25:27.565Z,7.70
2024-01-20T20:27:56.086Z,1.63
2024-01-20T20:30:28.731Z,4.65
2024-01-20T20:32:57.946Z,1.83
2024-01-20T20:35:26.783Z,2.35
2024-01-20T20:37:56.944Z,1.80
2024-01-20T20:40:26.040Z,2.00
2024-01-20T20:42:56.152Z,2.88
2024-01-20T20:45:25.475Z,3.90
2024-01-20T20:47:54.350Z,2.33
2024-01-20T20:50:23.114Z,2.53
2024-01-20T20:52:52.060Z,1.15
2024-01-20T20:55:21.200Z,1.40
2024-01-20T20:57:49.908Z,1.30
2024-01-20T21:00:21.015Z,1.10
2024-01-20T21:02:49.510Z,1.30
2024-01-20T21:05:18.808Z,3.30
2024-01-20T21:07:48.144Z,2.40
2024-01-20T21:10:18.381Z,1.23
2024-01-20T21:12:47.879Z,1.85
2024-01-20T21:15:17.500Z,3.15
2024-01-20T21:17:46.272Z,3.92
2024-01-20T21:20:15.293Z,2.85
2024-01-20T21:22:44.005Z,3.17
2024-01-20T21:25:12.967Z,3.88
2024-01-20T21:27:41.860Z,1.33
2024-01-20T21:30:11.239Z,3.65
2024-01-20T21:32:40.294Z,1.95
2024-01-20T21:35:09.750Z,4.40
2024-01-20T21:37:38.899Z,2.28
2024-01-20T21:40:09.232Z,3.20
2024-01-20T21:42:40.580Z,5.25
2024-01-20T21:45:11.042Z,2.10
2024-01-20T21:47:39.908Z,1.60
2024-01-20T21:50:09.771Z,4.03
2024-01-20T21:52:38.563Z,3.08
2024-01-20T21:55:10.260Z,1.20
2024-01-20T21:57:39.180Z,2.65
2024-01-20T22:00:09.033Z,2.55
2024-01-20T22:02:44.752Z,4.05
2024-01-20T22:05:14.613Z,2.75
2024-01-20T22:07:44.520Z,2.55
2024-01-20T22:10:13.300Z,2.95
2024-01-20T22:12:42.189Z,1.77
2024-01-20T22:15:11.434Z,2.75
2024-01-20T22:17:40.396Z,3.10
2024-01-20T22:20:10.338Z,1.67
2024-01-20T22:22:39.279Z,2.38
2024-01-20T22:25:08.500Z,1.30
2024-01-20T22:27:41.116Z,4.13
2024-01-20T22:30:10.787Z,1.30
2024-01-20T22:32:40.953Z,1.15
2024-01-20T22:35:10.095Z,2.28
2024-01-20T22:37:38.954Z,1.10
2024-01-20T22:40:10.757Z,2.05
2024-01-20T22:42:42.123Z,1.00
2024-01-20T22:45:12.996Z,2.58
2024-01-20T22:47:45.775Z,1.52
2024-01-20T22:50:15.310Z,4.35
2024-01-20T22:52:44.325Z,2.75
2024-01-20T22:55:13.510Z,1.40
2024-01-20T22:57:43.283Z,1.80
2024-01-20T23:00:14.534Z,2.00
2024-01-20T23:02:44.373Z,1.15
2024-01-20T23:05:13.076Z,1.63
2024-01-20T23:07:41.945Z,1.85
2024-01-20T23:10:12.354Z,1.25
2024-01-20T23:12:41.848Z,3.72
2024-01-20T23:15:11.043Z,1.50
2024-01-20T23:17:39.768Z,4.10
2024-01-20T23:20:11.756Z,2.53
2024-01-20T23:22:40.499Z,2.08
2024-01-20T23:25:10.946Z,1.17
2024-01-20T23:27:39.948Z,1.70
2024-01-20T23:30:09.071Z,4.40
2024-01-20T23:32:37.928Z,3.38
2024-01-20T23:35:07.858Z,1.27
2024-01-20T23:37:36.665Z,3.83
2024-01-20T23:40:06.531Z,2.17
2024-01-20T23:42:35.181Z,1.25
2024-01-20T23:45:04.099Z,3.22
2024-01-20T23:47:32.894Z,1.90
2024-01-20T23:50:02.359Z,2.03
2024-01-20T23:52:31.654Z,1.83
2024-01-20T23:55:00.397Z,1.73
2024-01-20T23:57:28.939Z,3.28
2024-01-20T23:59:57.416Z,1.05
